Time;durP1;ratioP1;P1;durP2;ratioP2;P2;SDS_P1;SDS_P2;PMS_P1;PMS_P2;Temp;Humidity;BMP_temperature;BMP_pressure;BME280_temperature;BME280_humidity;BME280_pressure;Samples;Min_cycle;Max_cycle;Signal;HPM_P1;HPM_P2
2024/02/07 00:01:15;;;;;;;5.22;1.85;;;;;;;18.62;47.86;100250.44;4978591;28;20501;-72
2024/02/07 00:03:41;;;;;;;7.25;2.03;;;;;;;18.61;47.68;100269.06;4978830;28;20463;-72
2024/02/07 00:06:07;;;;;;;4.78;1.80;;;;;;;18.58;47.97;100261.41;4978376;28;20053;-72
2024/02/07 00:08:32;;;;;;;6.75;2.13;;;;;;;18.65;47.90;100268.63;4979135;28;20038;-71
2024/02/07 00:10:58;;;;;;;5.45;2.20;;;;;;;18.56;47.89;100264.19;4979380;28;20121;-71
2024/02/07 00:13:23;;;;;;;5.03;1.65;;;;;;;18.72;47.95;100297.91;4979741;28;20092;-71
2024/02/07 00:15:49;;;;;;;8.13;2.17;;;;;;;18.63;47.87;100285.59;4980223;28;20038;-71
2024/02/07 00:18:14;;;;;;;5.38;1.95;;;;;;;18.65;48.31;100295.03;4980129;28;20042;-71
2024/02/07 00:20:39;;;;;;;4.50;1.85;;;;;;;18.54;48.13;100265.31;4980045;28;20042;-74
2024/02/07 00:23:07;;;;;;;5.43;2.10;;;;;;;18.56;47.85;100276.56;4979941;28;20467;-72
2024/02/07 00:25:32;;;;;;;4.00;1.80;;;;;;;18.59;48.13;100271.84;4980014;28;20034;-71
2024/02/07 00:27:58;;;;;;;5.10;2.08;;;;;;;18.64;47.94;100289.88;4979631;28;20530;-71
2024/02/07 00:30:23;;;;;;;5.38;1.98;;;;;;;18.54;47.94;100267.97;4979684;28;20038;-71
2024/02/07 00:32:48;;;;;;;5.87;2.00;;;;;;;18.61;47.82;100292.81;4978162;28;20120;-71
2024/02/07 00:35:14;;;;;;;5.30;1.80;;;;;;;18.63;48.32;100293.50;4979671;28;20269;-71
2024/02/07 00:37:39;;;;;;;3.85;2.00;;;;;;;18.61;48.17;100301.56;4979490;28;20038;-71
2024/02/07 00:40:05;;;;;;;6.05;1.90;;;;;;;18.57;48.12;100313.38;4979498;28;20502;-71
2024/02/07 00:42:30;;;;;;;4.30;1.65;;;;;;;18.58;48.13;100308.91;4979359;28;20041;-71
2024/02/07 00:44:56;;;;;;;5.45;2.03;;;;;;;18.46;48.22;100290.59;4979614;28;20142;-72
2024/02/07 00:47:21;;;;;;;6.47;1.98;;;;;;;18.61;48.14;100311.28;4979080;28;20455;-72
2024/02/07 00:49:46;;;;;;;4.47;1.95;;;;;;;18.52;48.27;100302.41;4978019;28;20033;-72
2024/02/07 00:52:12;;;;;;;4.75;1.63;;;;;;;18.59;48.02;100310.59;4979247;28;20125;-72
2024/02/07 00:54:37;;;;;;;4.57;1.50;;;;;;;18.53;48.32;100296.13;4979115;28;20030;-72
2024/02/07 00:57:02;;;;;;;3.53;1.70;;;;;;;18.43;48.33;100275.03;4979059;28;20072;-71
2024/02/07 00:59:28;;;;;;;5.78;1.90;;;;;;;18.53;48.20;100296.13;4978186;28;20315;-72
2024/02/07 01:01:53;;;;;;;4.88;1.98;;;;;;;18.49;48.36;100292.97;4978158;28;20027;-72
2024/02/07 01:04:19;;;;;;;3.40;1.48;;;;;;;18.45;48.41;100275.75;4978888;28;20026;-72
2024/02/07 01:06:44;;;;;;;5.43;1.80;;;;;;;18.43;48.53;100276.88;4978587;28;20072;-72
2024/02/07 01:09:10;;;;;;;5.72;1.75;;;;;;;18.41;48.19;100271.72;4979052;28;20122;-71
2024/02/07 01:11:35;;;;;;;4.07;1.60;;;;;;;18.52;48.06;100285.72;4978766;28;20030;-72
2024/02/07 01:14:01;;;;;;;4.90;1.90;;;;;;;18.40;48.44;100263.94;4979091;28;20069;-72
2024/02/07 01:16:26;;;;;;;5.70;2.13;;;;;;;18.49;48.58;100282.41;4978624;28;20049;-72
2024/02/07 01:18:51;;;;;;;4.05;1.50;;;;;;;18.46;48.45;100281.84;4978608;28;20550;-72
2024/02/07 01:21:17;;;;;;;5.38;1.65;;;;;;;18.40;48.30;100262.13;4978574;28;20030;-72
2024/02/07 01:23:46;;;;;;;6.93;1.63;;;;;;;18.36;48.18;100249.34;4979046;28;20058;-72
2024/02/07 01:26:13;;;;;;;5.20;1.70;;;;;;;18.46;48.26;100258.13;4978704;28;20035;-71
2024/02/07 01:28:39;;;;;;;4.15;1.77;;;;;;;18.38;48.59;100228.97;4978804;28;20038;-72
2024/02/07 01:31:05;;;;;;;4.68;1.50;;;;;;;18.38;48.23;100228.97;4977772;28;20480;-72
2024/02/07 01:33:30;;;;;;;4.63;1.40;;;;;;;18.44;48.43;100231.03;4978239;28;20039;-71
2024/02/07 01:35:55;;;;;;;4.53;1.60;;;;;;;18.30;48.40;100200.66;4978281;28;20399;-71
2024/02/07 01:38:21;;;;;;;5.53;1.70;;;;;;;18.39;48.59;100217.44;4978184;28;20034;-72
2024/02/07 01:40:46;;;;;;;4.07;1.85;;;;;;;18.39;48.79;100199.81;4978792;28;20038;-72
2024/02/07 01:43:12;;;;;;;3.95;1.70;;;;;;;18.31;48.33;100182.03;4978502;28;20035;-71
2024/02/07 01:45:38;;;;;;;4.28;1.50;;;;;;;18.33;48.59;100189.81;4978103;28;20031;-71
2024/02/07 01:48:05;;;;;;;3.45;1.38;;;;;;;18.30;48.72;100169.81;4977667;28;20054;-71
2024/02/07 01:50:31;;;;;;;4.70;1.60;;;;;;;18.42;48.63;100190.75;4978327;28;20027;-71
2024/02/07 01:53:02;;;;;;;4.00;1.77;;;;;;;18.40;48.68;100182.16;4978316;28;20057;-71
2024/02/07 01:55:28;;;;;;;4.95;1.70;;;;;;;18.45;48.60;100198.38;4978164;28;20391;-71
2024/02/07 01:57:55;;;;;;;3.10;1.25;;;;;;;18.44;48.55;100196.75;4977737;28;20118;-71
2024/02/07 02:00:21;;;;;;;2.90;1.30;;;;;;;18.31;48.65;100165.41;4977250;28;20466;-71
2024/02/07 02:02:51;;;;;;;4.65;1.58;;;;;;;18.38;48.60;100179.66;4976603;28;20043;-71
2024/02/07 02:05:16;;;;;;;4.05;1.80;;;;;;;18.43;48.50;100255.75;4977580;28;20035;-71
2024/02/07 02:07:41;;;;;;;4.72;1.40;;;;;;;18.30;48.62;100195.38;4977570;28;20092;-72
2024/02/07 02:10:07;;;;;;;3.55;1.45;;;;;;;18.25;48.54;100269.66;4977531;28;20077;-72
2024/02/07 02:12:33;;;;;;;3.42;1.45;;;;;;;18.28;48.35;100250.09;4977247;28;20073;-72
2024/02/07 02:14:59;;;;;;;4.63;1.50;;;;;;;18.40;48.43;100253.41;4977397;28;20031;-71
2024/02/07 02:17:24;;;;;;;3.97;1.50;;;;;;;18.26;48.25;100260.78;4992419;28;20109;-71
2024/02/07 02:19:50;;;;;;;3.75;1.20;;;;;;;18.23;48.54;100258.41;4977463;28;20065;-71
2024/02/07 02:22:47;;;;;;;3.28;1.40;;;;;;;18.31;48.22;100265.63;4977708;28;20058;-72
2024/02/07 02:25:21;;;;;;;4.15;1.48;;;;;;;18.40;48.10;100295.59;4977435;28;20043;-71
2024/02/07 02:27:54;;;;;;;;;;;;;;;18.37;47.81;100296.72;4977883;28;20066;-71
2024/02/07 02:30:33;;;;;;;4.22;1.27;;;;;;;18.31;48.12;100292.84;4978038;28;20351;-71
2024/02/07 02:33:03;;;;;;;3.28;1.20;;;;;;;18.36;47.81;100304.75;4977398;28;20160;-72
2024/02/07 02:35:31;;;;;;;2.60;1.17;;;;;;;18.28;47.62;100302.84;4977806;28;20042;-72
2024/02/07 02:37:56;;;;;;;3.70;1.33;;;;;;;18.26;47.42;100302.13;4977218;28;20038;-71
2024/02/07 02:40:21;;;;;;;3.78;1.30;;;;;;;18.31;47.29;100315.75;4977484;28;20026;-72
2024/02/07 02:42:47;;;;;;;3.35;1.08;;;;;;;18.34;47.37;100323.41;4977553;28;20027;-72
2024/02/07 02:45:12;;;;;;;4.07;1.27;;;;;;;18.26;47.41;100310.03;4977050;28;20031;-72
2024/02/07 02:47:37;;;;;;;3.13;1.20;;;;;;;18.33;47.24;100319.09;4976141;28;20058;-72
2024/02/07 02:50:03;;;;;;;3.17;1.20;;;;;;;18.10;47.18;100279.78;4976688;28;20027;-71
2024/02/07 02:52:28;;;;;;;3.00;1.17;;;;;;;18.20;46.97;100305.31;4977167;28;20031;-71
2024/02/07 02:54:56;;;;;;;2.50;1.10;;;;;;;18.15;46.70;100297.84;4975774;28;20037;-72
2024/02/07 02:57:22;;;;;;;2.92;1.02;;;;;;;18.13;46.94;100300.63;4976965;28;20062;-72
2024/02/07 02:59:48;;;;;;;4.43;1.20;;;;;;;18.15;46.65;100303.13;4976638;28;20045;-72
2024/02/07 03:02:14;;;;;;;2.35;1.15;;;;;;;18.26;46.76;100331.13;4976134;28;20459;-71
2024/02/07 03:04:43;;;;;;;3.47;1.00;;;;;;;18.16;46.43;100307.41;4975762;28;20041;-72
2024/02/07 03:10:01;;;;;;;2.50;1.05;;;;;;;18.23;46.57;100327.00;4971934;28;20062;-72
2024/02/07 03:12:26;;;;;;;2.95;0.93;;;;;;;18.25;46.45;100340.88;4976379;28;20403;-71
2024/02/07 03:14:52;;;;;;;3.50;1.08;;;;;;;18.24;46.50;100338.38;4978556;28;20038;-72
2024/02/07 03:17:17;;;;;;;3.03;1.05;;;;;;;18.20;46.35;100339.59;4971293;28;20100;-72
2024/02/07 03:19:42;;;;;;;3.33;0.93;;;;;;;18.09;46.31;100322.94;4980645;28;20041;-71
2024/02/07 03:22:07;;;;;;;3.05;1.10;;;;;;;18.21;46.23;100344.75;4981278;28;20283;-71
2024/02/07 03:24:33;;;;;;;3.03;0.88;;;;;;;18.21;46.13;100343.91;4980671;28;20030;-72
2024/02/07 03:26:58;;;;;;;3.90;1.20;;;;;;;18.18;46.21;100334.47;4980160;28;20030;-72
2024/02/07 03:29:25;;;;;;;4.13;0.95;;;;;;;18.20;46.26;100337.81;4979889;28;20023;-72
2024/02/07 03:31:51;;;;;;;3.80;1.05;;;;;;;18.17;46.01;100338.09;4980256;28;20057;-72
2024/02/07 03:34:16;;;;;;;3.30;1.08;;;;;;;18.12;45.79;100335.03;4980713;28;20494;-72
2024/02/07 03:36:41;;;;;;;2.67;1.00;;;;;;;18.15;45.82;100347.94;4980614;28;20455;-72
2024/02/07 03:39:09;;;;;;;2.80;0.85;;;;;;;18.20;45.96;100364.19;4980607;28;20121;-72
2024/02/07 03:41:34;;;;;;;1.83;1.00;;;;;;;18.20;45.85;100360.69;4980335;28;20069;-72
2024/02/07 03:44:01;;;;;;;3.85;1.15;;;;;;;18.09;45.74;100354.59;4980470;28;20204;-72
2024/02/07 03:46:27;;;;;;;2.55;0.93;;;;;;;18.07;45.84;100345.13;4980082;28;20475;-72
2024/02/07 03:48:53;;;;;;;2.95;1.10;;;;;;;18.00;45.92;100336.13;4978495;28;20048;-72
2024/02/07 03:51:18;;;;;;;2.95;1.33;;;;;;;18.16;45.71;100365.41;4980187;28;20034;-72
2024/02/07 03:53:44;;;;;;;2.25;0.82;;;;;;;18.03;45.71;100343.75;4979774;28;20038;-71
2024/02/07 03:56:13;;;;;;;3.92;1.05;;;;;;;18.04;45.57;100354.16;4979939;28;20426;-72
2024/02/07 03:58:40;;;;;;;3.15;1.00;;;;;;;18.14;45.47;100364.72;4979867;28;20026;-72
2024/02/07 04:01:06;;;;;;;4.35;1.10;;;;;;;17.99;45.65;100342.34;4980147;28;20062;-71
2024/02/07 04:03:31;;;;;;;2.53;1.00;;;;;;;18.02;45.85;100353.44;4980204;28;20066;-72
2024/02/07 04:05:57;;;;;;;2.33;0.90;;;;;;;18.10;45.48;100361.53;4980472;28;20118;-72
2024/02/07 04:08:23;;;;;;;1.95;0.85;;;;;;;18.05;45.69;100361.09;4980362;28;20423;-72
2024/02/07 04:10:51;;;;;;;2.67;0.95;;;;;;;18.12;45.41;100379.88;4981154;28;20374;-71
2024/02/07 05:15:51;;;;;;;;;;;;;;;17.97;44.82;100426.03;4979011;28;20053;-71
2024/02/07 05:18:20;;;;;;;1.90;0.60;;;;;;;17.87;44.71;100413.63;4978398;28;19917;-71
2024/02/07 05:20:49;;;;;;;1.75;0.70;;;;;;;17.94;44.58;100413.94;4978276;28;20078;-72
2024/02/07 05:23:16;;;;;;;2.88;0.98;;;;;;;17.97;44.61;100418.94;4977467;28;20487;-72
2024/02/07 05:25:43;;;;;;;3.25;0.90;;;;;;;17.91;44.70;100408.94;4978522;28;20041;-71
2024/02/07 05:28:09;;;;;;;2.13;0.80;;;;;;;17.97;44.16;100423.38;4978185;28;20447;-71
2024/02/07 05:30:34;;;;;;;2.13;0.80;;;;;;;17.83;44.40;100385.88;4978170;28;20133;-71
2024/02/07 05:32:59;;;;;;;1.83;0.73;;;;;;;17.92;44.28;100407.97;4978058;28;20085;-72
2024/02/07 05:35:25;;;;;;;2.45;0.80;;;;;;;17.90;44.36;100402.84;4978988;28;21277;-74
2024/02/07 05:37:52;;;;;;;2.45;0.70;;;;;;;17.89;44.38;100406.44;4975786;28;20443;-71
2024/02/07 05:40:17;;;;;;;2.08;0.70;;;;;;;17.80;44.27;100396.69;4978542;28;20452;-72
2024/02/07 05:42:42;;;;;;;2.78;1.00;;;;;;;17.89;44.20;100406.44;4978545;28;20030;-72
2024/02/07 05:45:08;;;;;;;2.37;0.60;;;;;;;17.80;44.21;100393.19;4977745;28;20029;-72
2024/02/07 05:47:34;;;;;;;2.60;0.68;;;;;;;17.89;44.28;100409.06;4977003;28;20268;-72
2024/02/07 05:49:59;;;;;;;2.63;0.70;;;;;;;17.91;44.21;100422.97;4978097;28;20039;-73
2024/02/07 05:52:26;;;;;;;2.38;0.73;;;;;;;17.89;44.33;100419.59;4978591;28;20031;-72
2024/02/07 05:54:51;;;;;;;1.90;0.65;;;;;;;17.77;44.21;100405.66;4978404;28;20066;-72
2024/02/07 05:57:16;;;;;;;3.17;0.80;;;;;;;17.81;44.26;100418.59;4978647;28;20113;-72
2024/02/07 05:59:42;;;;;;;2.67;0.90;;;;;;;17.79;44.13;100417.91;4978243;28;20041;-72
2024/02/07 06:02:07;;;;;;;2.17;0.65;;;;;;;17.86;43.96;100421.66;4976862;28;20921;-72
2024/02/07 06:04:34;;;;;;;2.03;0.70;;;;;;;17.79;44.09;100410.81;4977317;28;20085;-72
2024/02/07 06:06:59;;;;;;;2.53;0.70;;;;;;;17.85;44.03;100428.72;4978115;28;20117;-72
2024/02/07 06:09:25;;;;;;;1.70;0.60;;;;;;;17.88;44.25;100452.22;4977523;28;20117;-72
2024/02/07 06:11:51;;;;;;;1.58;0.50;;;;;;;17.85;44.46;100447.19;4977883;28;20085;-72
2024/02/07 06:14:17;;;;;;;3.05;0.82;;;;;;;17.91;44.34;100459.03;4978166;28;20411;-73
2024/02/07 06:16:42;;;;;;;1.95;0.70;;;;;;;17.92;44.53;100453.63;4977866;28;20035;-73
2024/02/07 06:19:08;;;;;;;2.38;0.77;;;;;;;17.94;44.74;100456.13;4977824;28;20038;-73
2024/02/07 06:21:33;;;;;;;2.88;0.75;;;;;;;17.84;45.00;100457.88;4977434;28;20112;-73
2024/02/07 06:23:59;;;;;;;1.90;0.80;;;;;;;17.91;44.81;100474.84;4977187;28;20069;-73
2024/02/07 06:26:24;;;;;;;1.10;0.40;;;;;;;17.88;44.84;100464.56;4977295;28;20027;-73
2024/02/07 06:28:50;;;;;;;1.67;0.55;;;;;;;18.03;44.92;100486.16;4977579;28;20069;-73
2024/02/07 06:31:16;;;;;;;2.00;0.60;;;;;;;18.05;44.68;100484.19;4977385;28;20847;-73
2024/02/07 06:33:42;;;;;;;3.30;0.88;;;;;;;18.08;44.67;100481.31;4977282;28;20042;-73
2024/02/07 06:36:07;;;;;;;1.58;0.60;;;;;;;18.00;44.90;100465.31;4977824;28;20053;-73
2024/02/07 06:38:33;;;;;;;1.30;0.50;;;;;;;18.07;44.90;100480.47;4977810;28;20030;-73
2024/02/07 06:40:58;;;;;;;2.10;0.63;;;;;;;18.08;44.58;100479.50;4977196;28;20041;-73
2024/02/07 06:43:24;;;;;;;2.60;0.73;;;;;;;18.13;44.76;100465.91;4977403;28;20034;-72
2024/02/07 06:45:50;;;;;;;3.08;0.70;;;;;;;18.19;44.61;100475.91;4977379;28;20383;-71
2024/02/07 06:48:15;;;;;;;2.30;0.60;;;;;;;18.19;44.58;100469.81;4977414;28;20058;-71
2024/02/07 06:50:40;;;;;;;1.77;0.55;;;;;;;18.17;44.45;100467.31;4976898;28;20038;-71
2024/02/07 06:53:05;;;;;;;1.80;0.60;;;;;;;18.23;44.29;100468.56;4977240;28;20039;-71
2024/02/07 06:55:31;;;;;;;2.38;0.52;;;;;;;18.17;44.67;100448.03;4975458;28;20595;-71
2024/02/07 06:57:56;;;;;;;2.15;0.65;;;;;;;18.18;44.46;100458.41;4975104;28;20041;-72
2024/02/07 07:00:22;;;;;;;2.53;0.75;;;;;;;18.28;44.31;100476.94;4977311;28;20031;-71
2024/02/07 07:02:47;;;;;;;1.27;0.57;;;;;;;18.26;44.50;100484.97;4976125;28;20074;-71
2024/02/07 07:05:12;;;;;;;1.30;0.55;;;;;;;18.31;44.45;100488.03;4975752;28;20041;-72
2024/02/07 07:07:38;;;;;;;2.92;0.70;;;;;;;18.19;44.31;100467.19;4975569;28;20466;-73
2024/02/07 07:10:04;;;;;;;4.82;0.80;;;;;;;18.29;44.46;100473.31;4976962;28;20076;-71
2024/02/07 07:12:29;;;;;;;3.80;0.80;;;;;;;18.19;44.53;100465.38;4976778;28;20037;-69
2024/02/07 07:14:54;;;;;;;2.25;0.73;;;;;;;18.19;44.52;100465.38;4976568;28;20033;-72
2024/02/07 07:17:19;;;;;;;3.17;1.08;;;;;;;18.23;44.62;100474.69;4976535;28;20038;-73
2024/02/07 07:19:45;;;;;;;1.88;0.60;;;;;;;18.22;44.69;100488.03;4977051;28;20476;-72
2024/02/07 07:22:10;;;;;;;3.83;0.77;;;;;;;18.23;44.92;100487.03;4977433;28;20499;-71
2024/02/07 07:24:37;;;;;;;2.67;0.80;;;;;;;18.37;45.02;100507.75;4976887;28;20037;-71
2024/02/07 07:27:03;;;;;;;2.33;0.70;;;;;;;18.25;44.92;100485.13;4976697;28;20027;-69
2024/02/07 07:29:28;;;;;;;1.90;0.68;;;;;;;18.17;45.08;100480.50;4976769;28;20081;-71
2024/02/07 07:31:53;;;;;;;3.72;0.90;;;;;;;18.24;44.89;100496.63;4976230;28;20058;-71
2024/02/07 07:34:19;;;;;;;2.35;0.60;;;;;;;18.27;44.91;100497.19;4976422;28;20104;-71
2024/02/07 07:36:44;;;;;;;3.75;0.82;;;;;;;18.24;44.96;100502.72;4976412;28;20035;-72
2024/02/07 07:39:10;;;;;;;3.92;0.88;;;;;;;18.22;44.97;100499.41;4975531;28;20039;-71
2024/02/07 07:41:38;;;;;;;3.72;0.95;;;;;;;18.31;44.89;100516.25;4974831;28;20129;-72
2024/02/07 07:44:03;;;;;;;2.28;0.70;;;;;;;18.38;45.04;100529.72;4976802;28;21049;-70
2024/02/07 07:46:28;;;;;;;2.05;0.80;;;;;;;18.24;45.20;100515.91;4976927;28;20027;-72
2024/02/07 07:48:54;;;;;;;3.53;0.90;;;;;;;18.25;45.10;100516.78;4976479;28;20050;-77
2024/02/07 07:51:19;;;;;;;3.50;0.75;;;;;;;18.24;45.18;100515.09;4976920;28;20034;-69
2024/02/07 07:53:48;;;;;;;3.58;1.00;;;;;;;18.37;44.86;100543.88;4968808;28;20169;-72
2024/02/07 07:56:14;;;;;;;2.40;0.63;;;;;;;18.31;44.65;100538.16;4962807;28;20141;-70
2024/02/07 07:58:42;;;;;;;3.80;0.95;;;;;;;18.19;44.75;100528.69;4962255;28;20031;-69
2024/02/07 08:01:21;;;;;;;2.78;0.70;;;;;;;18.26;44.61;100542.16;4967822;28;20033;-70
2024/02/07 08:03:46;;;;;;;2.47;0.90;;;;;;;18.13;44.82;100516.88;4978072;28;20054;-72
2024/02/07 08:06:12;;;;;;;2.13;0.73;;;;;;;18.33;44.79;100547.75;4980149;28;20348;-72
2024/02/07 08:08:38;;;;;;;2.22;0.70;;;;;;;18.29;44.31;100533.97;4979738;28;20041;-71
2024/02/07 08:11:03;;;;;;;2.28;0.88;;;;;;;18.24;44.52;100528.28;4979785;28;20045;-72
2024/02/07 08:13:29;;;;;;;7.20;1.00;;;;;;;18.36;44.42;100553.59;4979747;28;20531;-69
2024/02/07 08:15:54;;;;;;;3.03;0.95;;;;;;;18.21;44.29;100537.28;4979816;28;20439;-71
2024/02/07 08:18:19;;;;;;;2.83;0.93;;;;;;;18.28;44.33;100543.72;4980154;28;20034;-68
2024/02/07 08:20:45;;;;;;;1.27;0.50;;;;;;;18.31;44.27;100547.91;4980031;28;20121;-72
2024/02/07 08:23:10;;;;;;;3.15;1.00;;;;;;;18.34;44.39;100558.19;4980237;28;20027;-71
2024/02/07 08:25:35;;;;;;;3.83;0.90;;;;;;;18.34;44.57;100552.91;4980402;28;20380;-68
2024/02/07 08:28:01;;;;;;;4.60;1.15;;;;;;;18.30;44.28;100535.66;4979422;28;20394;-70
2024/02/07 08:30:26;;;;;;;3.13;0.77;;;;;;;18.18;44.30;100512.97;4978132;28;20073;-72
2024/02/07 08:32:52;;;;;;;3.20;0.77;;;;;;;18.16;44.36;100510.47;4979365;28;20038;-70
2024/02/07 08:35:17;;;;;;;3.10;0.95;;;;;;;18.32;44.54;100546.91;4979890;28;20023;-69
2024/02/07 08:37:44;;;;;;;1.77;0.70;;;;;;;18.30;44.34;100535.66;4979736;28;20471;-68
2024/02/07 08:40:09;;;;;;;4.90;1.10;;;;;;;18.16;44.56;100528.13;4979515;28;20034;-70
2024/02/07 08:42:35;;;;;;;3.03;0.80;;;;;;;18.17;44.59;100527.97;4979342;28;20034;-76
2024/02/07 08:45:01;;;;;;;2.85;0.73;;;;;;;18.27;44.52;100544.66;4979891;28;20033;-77
2024/02/07 08:47:27;;;;;;;3.20;1.27;;;;;;;18.28;44.46;100551.63;4976468;28;20043;-75
2024/02/07 08:49:52;;;;;;;2.22;0.60;;;;;;;18.26;44.75;100547.44;4978384;28;20072;-75
2024/02/07 08:52:17;;;;;;;1.88;0.73;;;;;;;18.29;44.52;100552.44;4978877;28;20034;-77
2024/02/07 08:54:43;;;;;;;3.75;0.80;;;;;;;18.17;44.61;100525.34;4978800;28;20486;-77
2024/02/07 08:57:08;;;;;;;2.10;0.60;;;;;;;18.32;44.47;100554.81;4978474;28;20037;-75
2024/02/07 08:59:33;;;;;;;3.17;0.77;;;;;;;18.21;44.53;100541.72;4978581;28;20034;-75
2024/02/07 09:01:58;;;;;;;4.13;0.80;;;;;;;18.28;44.67;100564.81;4977525;28;20034;-70
2024/02/07 09:04:24;;;;;;;3.20;0.90;;;;;;;18.30;44.94;100572.59;4977973;28;20038;-69
2024/02/07 09:06:49;;;;;;;3.67;0.90;;;;;;;18.34;44.85;100589.84;4977799;28;20038;-70
2024/02/07 09:09:14;;;;;;;3.60;0.85;;;;;;;18.20;44.67;100571.69;4977501;28;20033;-70
2024/02/07 09:11:40;;;;;;;2.47;0.65;;;;;;;18.30;44.51;100588.44;4977899;28;20030;-70
2024/02/07 09:14:05;;;;;;;2.72;0.75;;;;;;;18.20;44.58;100567.28;4976205;28;20030;-69
2024/02/07 09:16:30;;;;;;;3.10;0.70;;;;;;;18.29;44.44;100573.56;4978158;28;20034;-69
2024/02/07 09:18:55;;;;;;;2.58;0.75;;;;;;;18.27;44.50;100584.22;4978889;28;20027;-69
2024/02/07 09:21:21;;;;;;;4.43;0.80;;;;;;;18.31;44.43;100584.84;4978537;28;20456;-69
2024/02/07 09:23:47;;;;;;;2.38;0.60;;;;;;;18.18;44.55;100558.63;4978579;28;20279;-69
2024/02/07 09:26:12;;;;;;;4.93;1.08;;;;;;;18.20;44.12;100575.19;4978365;28;20030;-69
2024/02/07 09:28:37;;;;;;;3.83;0.85;;;;;;;18.35;44.44;100598.59;4977451;28;20045;-68
2024/02/07 09:31:03;;;;;;;2.47;1.00;;;;;;;18.30;44.62;100583.97;4975896;28;20140;-68
2024/02/07 09:33:28;;;;;;;3.72;0.80;;;;;;;18.31;44.51;100604.13;4976054;28;20107;-68
2024/02/07 09:35:55;;;;;;;3.30;0.80;;;;;;;18.19;44.50;100588.50;4978419;28;20049;-68
2024/02/07 09:38:21;;;;;;;2.58;0.70;;;;;;;18.29;44.88;100613.13;4977827;28;20276;-68
2024/02/07 09:40:51;;;;;;;10.10;0.95;;;;;;;18.28;45.00;100611.47;4978459;28;20134;-69
2024/02/07 09:43:17;;;;;;;3.83;0.93;;;;;;;18.33;44.88;100626.91;4973788;28;20754;-70
2024/02/07 09:45:47;;;;;;;3.17;0.80;;;;;;;18.24;44.77;100608.25;4977194;28;20065;-69
2024/02/07 09:48:21;;;;;;;2.53;0.90;;;;;;;18.38;44.69;100616.78;4976290;28;20067;-72
2024/02/07 09:50:47;;;;;;;3.15;0.82;;;;;;;18.29;44.54;100598.16;4976529;28;20038;-72
2024/02/07 09:53:14;;;;;;;3.25;0.70;;;;;;;18.31;44.60;100603.31;4975180;28;20513;-71
2024/02/07 09:55:40;;;;;;;3.22;0.88;;;;;;;18.30;44.37;100605.06;4975308;28;20026;-70
2024/02/07 09:58:08;;;;;;;2.80;0.73;;;;;;;18.38;44.49;100611.50;4976130;28;20049;-67
2024/02/07 10:00:34;;;;;;;3.17;0.82;;;;;;;18.23;44.40;100587.25;4974776;28;20035;-69
2024/02/07 10:03:01;;;;;;;2.38;0.70;;;;;;;18.38;44.69;100612.34;4974790;28;20038;-68
2024/02/07 10:05:29;;;;;;;2.88;0.93;;;;;;;18.38;44.61;100598.31;4978234;28;20118;-69
2024/02/07 10:07:54;;;;;;;3.10;0.80;;;;;;;18.24;44.89;100565.22;4977065;28;20046;-68
2024/02/07 10:10:20;;;;;;;3.83;0.77;;;;;;;18.38;44.70;100572.75;4978028;28;20120;-68
2024/02/07 10:12:46;;;;;;;1.42;0.60;;;;;;;18.37;44.39;100565.81;4977620;28;20030;-68
2024/02/07 10:15:12;;;;;;;3.15;0.90;;;;;;;18.31;44.51;100571.63;4977502;28;20069;-68
2024/02/07 10:17:38;;;;;;;4.20;0.80;;;;;;;18.16;44.49;100536.03;4975107;28;20045;-68
2024/02/07 10:20:10;;;;;;;2.85;0.80;;;;;;;18.30;44.67;100562.88;4982250;28;20038;-68
2024/02/07 10:22:41;;;;;;;2.65;0.90;;;;;;;18.44;44.35;100579.31;4976264;28;20030;-70
2024/02/07 10:25:15;;;;;;;4.07;1.00;;;;;;;18.32;44.43;100557.47;4967166;28;20458;-72
2024/02/07 10:27:41;;;;;;;3.22;0.85;;;;;;;18.43;44.25;100569.72;4976661;28;20053;-70
2024/02/07 10:30:08;;;;;;;3.50;0.80;;;;;;;18.45;44.42;100578.34;4976500;28;20038;-70
2024/02/07 10:32:35;;;;;;;3.60;0.80;;;;;;;18.41;44.51;100569.03;4976640;28;20495;-69
2024/02/07 10:35:00;;;;;;;5.18;0.88;;;;;;;18.46;44.48;100561.56;4976691;28;20077;-70
2024/02/07 10:37:26;;;;;;;2.97;0.80;;;;;;;18.35;44.42;100549.28;4975999;28;20038;-70
2024/02/07 10:40:04;;;;;;;2.75;0.90;;;;;;;18.44;44.71;100561.69;4975830;28;20034;-70
2024/02/07 10:42:30;;;;;;;3.25;0.90;;;;;;;18.32;44.82;100557.47;4975582;28;20033;-70
2024/02/07 10:45:21;;;;;;;2.25;0.80;;;;;;;18.48;44.51;100591.28;4976193;28;20034;-69
2024/02/07 10:47:47;;;;;;;3.22;0.90;;;;;;;18.40;44.51;100581.38;4976363;28;20053;-68
2024/02/07 10:50:16;;;;;;;2.05;0.80;;;;;;;18.37;44.62;100557.06;4976459;28;20031;-79
2024/02/07 10:52:42;;;;;;;2.90;0.80;;;;;;;18.48;44.34;100571.00;4977191;28;20126;-70
2024/02/07 10:55:10;;;;;;;3.10;0.85;;;;;;;18.43;44.50;100575.00;4976201;28;20043;-69
2024/02/07 10:57:39;;;;;;;3.28;1.00;;;;;;;18.37;44.00;100560.53;4976636;28;20031;-72
2024/02/07 11:00:06;;;;;;;5.40;1.27;;;;;;;18.36;43.85;100574.72;4976806;28;20039;-70
2024/02/07 11:02:31;;;;;;;3.05;1.02;;;;;;;18.38;43.91;100578.03;4975746;28;20031;-70
2024/02/07 11:04:57;;;;;;;5.57;0.85;;;;;;;18.34;44.01;100568.75;4976419;28;20082;-71
2024/02/07 11:07:24;;;;;;;3.20;1.05;;;;;;;18.38;44.27;100575.41;4976735;28;20043;-71
2024/02/07 11:09:51;;;;;;;3.42;0.90;;;;;;;18.52;44.26;100599.75;4975482;28;20062;-69
2024/02/07 11:12:17;;;;;;;3.15;1.00;;;;;;;18.42;44.16;100576.81;4976090;28;20151;-69
2024/02/07 11:14:47;;;;;;;4.32;1.02;;;;;;;18.48;44.08;100581.56;4976295;28;20723;-70
2024/02/07 11:17:16;;;;;;;3.53;1.00;;;;;;;18.40;44.12;100562.91;4976349;28;20042;-69
2024/02/07 11:19:46;;;;;;;4.78;1.02;;;;;;;18.48;44.26;100564.88;4974609;28;20375;-70
2024/02/07 11:22:25;;;;;;;3.70;1.05;;;;;;;18.44;44.52;100556.41;4976362;28;20040;-71
2024/02/07 11:24:54;;;;;;;4.07;0.90;;;;;;;18.38;44.49;100543.75;4976543;28;20065;-70
2024/02/07 11:27:19;;;;;;;3.38;1.02;;;;;;;18.48;44.36;100549.91;4976517;28;20085;-70
2024/02/07 11:29:45;;;;;;;3.80;1.02;;;;;;;18.40;44.44;100525.13;4974599;28;20034;-69
2024/02/07 11:32:11;;;;;;;5.05;1.02;;;;;;;18.51;44.61;100547.97;4976074;28;20039;-69
2024/02/07 11:34:41;;;;;;;5.70;1.38;;;;;;;18.51;44.45;100548.78;4975953;28;20030;-69
2024/02/07 11:37:10;;;;;;;3.78;0.80;;;;;;;18.54;44.63;100553.78;4978365;28;20039;-71
2024/02/07 11:39:38;;;;;;;2.47;0.80;;;;;;;18.47;44.71;100545.59;4978535;28;20034;-71
2024/02/07 11:42:20;;;;;;;3.92;1.10;;;;;;;18.45;44.68;100536.97;4970777;28;20038;-71
2024/02/07 11:44:53;;;;;;;4.15;1.10;;;;;;;18.45;44.39;100539.63;4980531;28;20031;-71
2024/02/07 11:47:34;;;;;;;3.78;0.93;;;;;;;18.43;44.56;100524.88;4980434;28;20113;-71
2024/02/07 11:50:02;;;;;;;3.22;0.80;;;;;;;18.44;44.22;100522.09;4979676;28;20501;-70
2024/02/07 11:52:37;;;;;;;2.95;0.70;;;;;;;18.44;44.23;100524.75;4980273;28;20093;-72
2024/02/07 11:55:07;;;;;;;3.20;0.95;;;;;;;18.45;44.46;100533.47;4979994;28;20037;-71
2024/02/07 11:57:33;;;;;;;4.63;1.00;;;;;;;18.44;44.01;100530.03;4980479;28;20027;-71
2024/02/07 12:00:05;;;;;;;5.78;1.65;;;;;;;18.55;44.37;100554.63;4980322;28;20034;-69
2024/02/07 12:02:31;;;;;;;5.97;1.55;;;;;;;18.52;44.04;100562.81;4974479;28;20564;-70
2024/02/07 12:04:57;;;;;;;4.55;1.40;;;;;;;18.43;44.06;100546.81;4978002;28;21138;-69
2024/02/07 12:07:23;;;;;;;8.35;1.30;;;;;;;18.38;44.22;100537.63;4978814;28;20479;-70
2024/02/07 12:09:48;;;;;;;4.93;1.70;;;;;;;18.40;44.15;100546.25;4979173;28;20090;-69
2024/02/07 12:12:13;;;;;;;4.65;1.13;;;;;;;18.51;44.42;100564.63;4978840;28;20403;-69
2024/02/07 12:14:42;;;;;;;4.25;1.08;;;;;;;18.36;44.47;100529.84;4979064;28;20459;-69
2024/02/07 12:17:08;;;;;;;6.55;1.52;;;;;;;18.43;44.46;100541.53;4979340;28;20480;-69
2024/02/07 12:19:35;;;;;;;5.65;1.30;;;;;;;18.52;44.03;100552.25;4978483;28;20050;-70
2024/02/07 12:22:02;;;;;;;6.38;1.88;;;;;;;18.50;44.19;100541.84;4978306;28;20547;-70
2024/02/07 12:24:29;;;;;;;6.57;1.45;;;;;;;18.36;44.30;100519.31;4978338;28;20045;-69
2024/02/07 12:27:06;;;;;;;6.65;1.40;;;;;;;18.37;44.36;100520.13;4978366;28;20027;-71
2024/02/07 12:29:31;;;;;;;6.07;1.52;;;;;;;18.49;44.22;100542.81;4978144;28;20046;-71